Marion, IL

3:16 PM CDT on July 25, 2016 (GMT -0500)
N State at Wildrose Ln | | Change Station

Elev 463 ft 37.75 °N, 88.92 °W | Updated 17 seconds ago

Mostly Cloudy
Mostly Cloudy
94.5 °F
Feels Like 109 °F
N
13.1
Wind Variable Wind from NW
Gusts 15.4 mph

Today
High -- | Low -- °F
--% Chance of Precip.
Yesterday
High -- | Low -- °F
Precip. -- in
Pressure 29.97 in
Visibility 10.0 miles
Clouds Scattered Clouds 3300 ft
Mostly Cloudy 5500 ft
Heat Index 109 °F
Dew Point 77 °F
Humidity 57%
Rainfall 0.00 in
Snow Depth Not available.
5:53 AM 8:09 PM
Waning Gibbous, 63% visible
METAR KMWA 251951Z 20007KT 10SM SCT033 BKN055 34/25 A2997
Pressure 29.97 in
Visibility 10.0 miles
Clouds Scattered Clouds 3300 ft
Mostly Cloudy 5500 ft
Heat Index 109 °F
Dew Point 77 °F
Humidity 57%
Rainfall 0.00 in
Snow Depth Not available.
5:53 AM 8:09 PM
Waning Gibbous, 63% visible
METAR KMWA 251951Z 20007KT 10SM SCT033 BKN055 34/25 A2997
Record highs are possible for parts of the Northeast Monday and Tuesday, as parts of the central U.S. take a little breather from the worst of summer's dog day heat.

Expansive high pressure in the upper atmosphere will focus on parts of the East and West this week, sending heat indices well into the triple digits from the Mid-Atlantic states into the South.

10-Day Weather Forecast

Almanac

Astronomy

Jul. 25, 2016 Rise Set
Actual Time
Civil Twilight
Nautical Twilight
Astronomical Twilight
Moon
Length of Visible Light
Length of Day
Tomorrow will be .
, % of the Moon is Illuminated

Today's Extremes

State Highs State Lows

Community

WunderPhotos

Upload Photos

1,927,405 photos uploaded!

WunderBlog® & News

Nearby

Air Quality

  Air Quality AQ Index Pollutant
Not available.

Snow Depth

Station Depth Elevation

Earthquake Activity

City Distance Mag. Time & Date
Minimum magnitude displayed is 2.5.

Coastal Water Temperatures

Place Temperature

Stations

Nearby Weather Stations

Station Location Temp. Windchill Dew Point Humidity Wind Precip. Elev Updated Type
                   

Watches & Warnings

There are currently no watches in effect.